Aviation Digital Data Service (ADDS)

Output produced by METARs form (1328 UTC 27 July 2016)
found at http://aviationweather.gov/adds/metars/
 
KLWB 271124Z 2712/2812 00000KT 1/4SM FG OVC001 
     FM271330 VRB03KT 3SM BR SCT005 
     FM271500 VRB03KT P6SM VCTS BKN050CB 
     FM272100 28005KT P6SM VCTS OVC040CB 
     FM280200 00000KT P6SM BKN090